Accueil
METAR-TAF:

METAR-TAF

Aéroports :

Aéroport international de Curaçao

Curaçao, Antilles néerlandaises

latitude: 12-12N, longitude: 068-58W, altitude: 9 m

Observation

Le bulletin a été fait il y a 59 minutes, à 05:00 UTC
Vent 4 kt de est/sud-est
Température 27°C
Humidité 74%
Pression 1011 hPa
Visibilité 10 km ou plus
Quelques nuages à une hauteur de 1800 ft

METAR: TNCC 210500Z 12004KT 9999 FEW018 27/22 Q1011 NOSIG

Heure: 01:59 (05:59 UTC)

Prévision

Le bulletin a été fait il y a 44 minutes, à 05:15 UTC
Prévision valable du 21 à 06 UTC au 22 à 06 UTC
Vent 8 kt de est
Visibilité 10 km ou plus
Nuages épars à une hauteur de 2000 ft
Probabilité 40% :
Temporairement
du 21 à 06 UTC au 21 à 20 UTC
Vent 5 kt de direction variable avec des rafales jusqu'à 20 kt
Visibilité: 5000 m
Nuages fragmentés à une hauteur de 1500 ft
averses de pluie

TAF: TNCC 210515Z 2106/2206 08008KT 9999 SCT020 PROB40 TEMPO 2106/2120 VRB05G20KT 5000 SHRA BKN015

Observations et prévisions météorologiques de plus de 4000 aéroports (messages METAR et TAF).

Les stations disponibles sont représentées par des disques jaunes et rouges sur la carte.

Passer la souris dessus pour voir le nom de la station.

Cliquer dessus pour voir les observations et prévisions météorologiques.

Pour changer de carte: cliquez sur les boutons verts avec une croix noire pour zoomer, sur le bouton vert avec un tiret pour effectuer un zoom arrière, ou sur les flèches vertes pour les cartes adjacentes.


METAR-TAF: